sensor_id;sensor_type;location;lat;lon;timestamp;pressure;altitude;pressure_sealevel;temperature;humidity
52591;BME280;38483;42.620;25.394;2022-08-19T00:01:53;96690.19;;;25.46;51.55
52591;BME280;38483;42.620;25.394;2022-08-19T00:04:25;96686.84;;;25.52;50.36
52591;BME280;38483;42.620;25.394;2022-08-19T00:06:54;96692.84;;;25.38;50.72
52591;BME280;38483;42.620;25.394;2022-08-19T00:09:22;96692.66;;;25.40;49.60
52591;BME280;38483;42.620;25.394;2022-08-19T00:11:51;96692.19;;;25.44;50.34
52591;BME280;38483;42.620;25.394;2022-08-19T00:14:18;96675.81;;;25.17;49.86
52591;BME280;38483;42.620;25.394;2022-08-19T00:16:48;96689.75;;;25.11;50.69
52591;BME280;38483;42.620;25.394;2022-08-19T00:19:15;96688.91;;;25.18;50.31
52591;BME280;38483;42.620;25.394;2022-08-19T00:21:44;96659.78;;;24.86;50.84
52591;BME280;38483;42.620;25.394;2022-08-19T00:24:13;96683.28;;;25.13;50.35
52591;BME280;38483;42.620;25.394;2022-08-19T00:26:43;96686.25;;;25.26;50.77
52591;BME280;38483;42.620;25.394;2022-08-19T00:29:12;96688.75;;;25.12;50.04
52591;BME280;38483;42.620;25.394;2022-08-19T00:31:40;96659.94;;;25.00;51.01
52591;BME280;38483;42.620;25.394;2022-08-19T00:34:11;96678.66;;;25.07;50.68
52591;BME280;38483;42.620;25.394;2022-08-19T00:36:40;96672.69;;;25.05;50.75
52591;BME280;38483;42.620;25.394;2022-08-19T00:39:10;96674.88;;;25.01;50.69
52591;BME280;38483;42.620;25.394;2022-08-19T00:41:37;96669.25;;;24.80;50.53
52591;BME280;38483;42.620;25.394;2022-08-19T00:44:12;96674.06;;;24.77;50.59
52591;BME280;38483;42.620;25.394;2022-08-19T00:46:44;96662.25;;;24.63;51.41
52591;BME280;38483;42.620;25.394;2022-08-19T00:49:56;96679.31;;;24.61;50.94
52591;BME280;38483;42.620;25.394;2022-08-19T00:52:33;96665.75;;;24.72;51.20
52591;BME280;38483;42.620;25.394;2022-08-19T00:55:05;96666.41;;;24.66;51.10
52591;BME280;38483;42.620;25.394;2022-08-19T00:57:40;96666.41;;;24.66;51.49
52591;BME280;38483;42.620;25.394;2022-08-19T01:00:12;96673.03;;;24.54;52.41
52591;BME280;38483;42.620;25.394;2022-08-19T01:02:41;96682.59;;;24.47;52.49
52591;BME280;38483;42.620;25.394;2022-08-19T01:05:12;96673.03;;;24.38;52.16
52591;BME280;38483;42.620;25.394;2022-08-19T01:07:42;96676.00;;;24.59;52.37
52591;BME280;38483;42.620;25.394;2022-08-19T01:10:13;96674.00;;;24.37;52.71
52591;BME280;38483;42.620;25.394;2022-08-19T01:12:42;96676.44;;;24.14;53.07
52591;BME280;38483;42.620;25.394;2022-08-19T01:15:14;96671.50;;;23.69;54.40
52591;BME280;38483;42.620;25.394;2022-08-19T01:17:43;96674.34;;;23.42;55.70
52591;BME280;38483;42.620;25.394;2022-08-19T01:20:17;96666.72;;;23.13;56.34
52591;BME280;38483;42.620;25.394;2022-08-19T01:22:49;96644.13;;;22.85;56.88
52591;BME280;38483;42.620;25.394;2022-08-19T01:25:20;96661.50;;;22.96;56.70
52591;BME280;38483;42.620;25.394;2022-08-19T01:27:51;96635.94;;;22.71;57.33
52591;BME280;38483;42.620;25.394;2022-08-19T01:30:24;96663.78;;;22.91;57.03
52591;BME280;38483;42.620;25.394;2022-08-19T01:32:53;96666.53;;;22.81;57.72
52591;BME280;38483;42.620;25.394;2022-08-19T01:35:23;96674.75;;;22.78;57.73
52591;BME280;38483;42.620;25.394;2022-08-19T01:37:53;96679.19;;;22.78;57.50
52591;BME280;38483;42.620;25.394;2022-08-19T01:40:23;96677.88;;;22.99;57.04
52591;BME280;38483;42.620;25.394;2022-08-19T01:42:52;96680.41;;;23.09;56.60
52591;BME280;38483;42.620;25.394;2022-08-19T01:45:22;96687.91;;;22.96;57.16
52591;BME280;38483;42.620;25.394;2022-08-19T01:47:54;96676.81;;;22.67;58.01
52591;BME280;38483;42.620;25.394;2022-08-19T01:50:29;96685.47;;;22.59;58.38
52591;BME280;38483;42.620;25.394;2022-08-19T01:52:56;96657.78;;;22.45;58.54
52591;BME280;38483;42.620;25.394;2022-08-19T01:55:36;96693.56;;;22.40;59.18
52591;BME280;38483;42.620;25.394;2022-08-19T01:58:13;96696.09;;;22.32;59.71
52591;BME280;38483;42.620;25.394;2022-08-19T02:00:41;96694.88;;;22.26;60.13
52591;BME280;38483;42.620;25.394;2022-08-19T02:03:09;96685.16;;;22.27;59.86
52591;BME280;38483;42.620;25.394;2022-08-19T02:05:39;96695.66;;;22.36;59.50
52591;BME280;38483;42.620;25.394;2022-08-19T02:08:09;96696.72;;;22.43;59.22
52591;BME280;38483;42.620;25.394;2022-08-19T02:10:41;96694.97;;;22.34;59.24
52591;BME280;38483;42.620;25.394;2022-08-19T02:13:11;96693.59;;;22.30;59.07
52591;BME280;38483;42.620;25.394;2022-08-19T02:15:58;96708.91;;;22.27;59.09
52591;BME280;38483;42.620;25.394;2022-08-19T02:18:30;96712.03;;;22.40;58.51
52591;BME280;38483;42.620;25.394;2022-08-19T02:20:57;96707.78;;;22.47;57.89
52591;BME280;38483;42.620;25.394;2022-08-19T02:23:25;96708.97;;;22.52;57.74
52591;BME280;38483;42.620;25.394;2022-08-19T02:25:52;96695.44;;;22.65;57.23
52591;BME280;38483;42.620;25.394;2022-08-19T02:28:20;96697.44;;;22.89;56.71
52591;BME280;38483;42.620;25.394;2022-08-19T02:30:48;96700.69;;;23.08;56.36
52591;BME280;38483;42.620;25.394;2022-08-19T02:33:16;96704.44;;;23.41;55.56
52591;BME280;38483;42.620;25.394;2022-08-19T02:35:46;96698.50;;;23.47;54.70
52591;BME280;38483;42.620;25.394;2022-08-19T02:38:14;96693.41;;;23.54;54.63
52591;BME280;38483;42.620;25.394;2022-08-19T02:41:05;96699.91;;;23.67;54.55
52591;BME280;38483;42.620;25.394;2022-08-19T02:43:34;96708.16;;;23.64;53.92
52591;BME280;38483;42.620;25.394;2022-08-19T02:46:21;96690.44;;;23.31;55.04
52591;BME280;38483;42.620;25.394;2022-08-19T02:48:50;96699.75;;;23.35;55.43
52591;BME280;38483;42.620;25.394;2022-08-19T02:51:26;96698.59;;;23.37;54.88
52591;BME280;38483;42.620;25.394;2022-08-19T02:53:54;96709.22;;;23.45;55.43
52591;BME280;38483;42.620;25.394;2022-08-19T02:56:22;96715.22;;;23.56;55.03
52591;BME280;38483;42.620;25.394;2022-08-19T02:58:51;96713.16;;;23.41;54.74
52591;BME280;38483;42.620;25.394;2022-08-19T03:01:27;96717.16;;;23.20;55.72
52591;BME280;38483;42.620;25.394;2022-08-19T03:03:56;96712.66;;;22.95;56.24
52591;BME280;38483;42.620;25.394;2022-08-19T03:06:24;96713.97;;;22.91;56.42
52591;BME280;38483;42.620;25.394;2022-08-19T03:08:51;96718.56;;;22.53;57.60
52591;BME280;38483;42.620;25.394;2022-08-19T03:11:30;96719.75;;;22.24;58.33
52591;BME280;38483;42.620;25.394;2022-08-19T03:13:59;96723.34;;;22.05;59.41
52591;BME280;38483;42.620;25.394;2022-08-19T03:16:28;96716.94;;;22.08;59.20
52591;BME280;38483;42.620;25.394;2022-08-19T03:19:01;96727.06;;;21.85;59.61
52591;BME280;38483;42.620;25.394;2022-08-19T03:21:30;96728.16;;;21.92;59.70
52591;BME280;38483;42.620;25.394;2022-08-19T03:24:00;96734.97;;;21.95;59.41
52591;BME280;38483;42.620;25.394;2022-08-19T03:26:28;96740.94;;;21.87;59.92
52591;BME280;38483;42.620;25.394;2022-08-19T03:28:56;96739.31;;;21.86;59.79
52591;BME280;38483;42.620;25.394;2022-08-19T03:31:26;96750.38;;;21.90;59.88
52591;BME280;38483;42.620;25.394;2022-08-19T03:34:13;96748.91;;;22.05;59.15
52591;BME280;38483;42.620;25.394;2022-08-19T03:36:41;96754.44;;;22.11;59.08
52591;BME280;38483;42.620;25.394;2022-08-19T03:39:10;96760.69;;;22.10;59.02
52591;BME280;38483;42.620;25.394;2022-08-19T03:41:40;96756.69;;;22.06;59.28
52591;BME280;38483;42.620;25.394;2022-08-19T03:44:14;96748.50;;;22.00;59.40
52591;BME280;38483;42.620;25.394;2022-08-19T03:46:45;96756.88;;;21.95;59.65
52591;BME280;38483;42.620;25.394;2022-08-19T03:49:12;96751.31;;;21.61;60.73
52591;BME280;38483;42.620;25.394;2022-08-19T03:51:41;96748.81;;;21.60;60.62
52591;BME280;38483;42.620;25.394;2022-08-19T03:54:11;96746.56;;;21.65;60.73
52591;BME280;38483;42.620;25.394;2022-08-19T03:56:41;96751.22;;;21.80;60.17
52591;BME280;38483;42.620;25.394;2022-08-19T03:59:12;96740.69;;;22.08;59.49
52591;BME280;38483;42.620;25.394;2022-08-19T04:01:41;96750.09;;;22.37;58.48
52591;BME280;38483;42.620;25.394;2022-08-19T04:04:08;96741.50;;;22.35;58.57
52591;BME280;38483;42.620;25.394;2022-08-19T04:06:37;96745.84;;;22.44;58.44
52591;BME280;38483;42.620;25.394;2022-08-19T04:09:08;96747.31;;;22.56;57.92
52591;BME280;38483;42.620;25.394;2022-08-19T04:11:46;96749.22;;;22.64;57.85
52591;BME280;38483;42.620;25.394;2022-08-19T04:14:20;96749.59;;;23.12;57.41
52591;BME280;38483;42.620;25.394;2022-08-19T04:16:48;96750.53;;;23.47;56.02
52591;BME280;38483;42.620;25.394;2022-08-19T04:19:18;96742.88;;;23.61;54.46
52591;BME280;38483;42.620;25.394;2022-08-19T04:21:48;96760.00;;;23.91;53.95
52591;BME280;38483;42.620;25.394;2022-08-19T04:24:17;96762.16;;;24.21;53.61
52591;BME280;38483;42.620;25.394;2022-08-19T04:26:46;96758.31;;;24.15;53.24
52591;BME280;38483;42.620;25.394;2022-08-19T04:29:20;96751.22;;;24.16;53.81
52591;BME280;38483;42.620;25.394;2022-08-19T04:31:49;96755.56;;;23.91;54.39
52591;BME280;38483;42.620;25.394;2022-08-19T04:34:19;96748.53;;;23.74;54.35
52591;BME280;38483;42.620;25.394;2022-08-19T04:36:50;96753.31;;;23.71;55.04
52591;BME280;38483;42.620;25.394;2022-08-19T04:39:28;96748.22;;;24.11;54.67
52591;BME280;38483;42.620;25.394;2022-08-19T04:42:16;96742.53;;;24.48;53.14
52591;BME280;38483;42.620;25.394;2022-08-19T04:45:04;96740.53;;;24.50;53.42
52591;BME280;38483;42.620;25.394;2022-08-19T04:47:40;96741.44;;;24.82;52.43
52591;BME280;38483;42.620;25.394;2022-08-19T04:50:19;96736.44;;;25.28;51.60
52591;BME280;38483;42.620;25.394;2022-08-19T04:52:51;96733.94;;;25.50;50.68
52591;BME280;38483;42.620;25.394;2022-08-19T04:55:18;96726.31;;;25.47;50.72
52591;BME280;38483;42.620;25.394;2022-08-19T04:57:47;96736.06;;;25.63;51.32
52591;BME280;38483;42.620;25.394;2022-08-19T05:00:14;96746.13;;;25.75;49.77
52591;BME280;38483;42.620;25.394;2022-08-19T05:02:42;96749.50;;;25.53;50.75
52591;BME280;38483;42.620;25.394;2022-08-19T05:05:09;96750.47;;;25.68;50.40
52591;BME280;38483;42.620;25.394;2022-08-19T05:07:37;96742.41;;;25.93;50.29
52591;BME280;38483;42.620;25.394;2022-08-19T05:10:05;96750.19;;;26.10;49.52
52591;BME280;38483;42.620;25.394;2022-08-19T05:12:33;96751.72;;;25.89;50.07
52591;BME280;38483;42.620;25.394;2022-08-19T05:15:02;96749.38;;;25.94;49.91
52591;BME280;38483;42.620;25.394;2022-08-19T05:17:33;96749.50;;;25.37;51.45
52591;BME280;38483;42.620;25.394;2022-08-19T05:20:06;96739.13;;;25.03;52.66
52591;BME280;38483;42.620;25.394;2022-08-19T05:22:55;96740.94;;;24.95;53.26
52591;BME280;38483;42.620;25.394;2022-08-19T05:25:25;96734.63;;;25.44;52.05
52591;BME280;38483;42.620;25.394;2022-08-19T05:27:52;96741.16;;;25.72;51.47
52591;BME280;38483;42.620;25.394;2022-08-19T05:30:21;96728.09;;;25.63;51.29
52591;BME280;38483;42.620;25.394;2022-08-19T05:33:09;96733.56;;;26.16;50.27
52591;BME280;38483;42.620;25.394;2022-08-19T05:35:39;96745.28;;;26.52;49.52
52591;BME280;38483;42.620;25.394;2022-08-19T05:38:08;96737.81;;;26.56;49.19
52591;BME280;38483;42.620;25.394;2022-08-19T05:40:35;96751.88;;;26.65;49.05
52591;BME280;38483;42.620;25.394;2022-08-19T05:43:07;96759.81;;;26.95;49.18
52591;BME280;38483;42.620;25.394;2022-08-19T05:45:39;96746.81;;;26.47;49.55
52591;BME280;38483;42.620;25.394;2022-08-19T05:48:12;96754.44;;;26.81;49.93
52591;BME280;38483;42.620;25.394;2022-08-19T05:50:45;96755.13;;;27.20;49.50
52591;BME280;38483;42.620;25.394;2022-08-19T05:53:13;96755.91;;;27.20;48.36
52591;BME280;38483;42.620;25.394;2022-08-19T05:55:44;96753.38;;;27.27;48.65
52591;BME280;38483;42.620;25.394;2022-08-19T05:58:12;96748.66;;;27.14;48.57
52591;BME280;38483;42.620;25.394;2022-08-19T06:00:43;96750.03;;;27.10;48.63
52591;BME280;38483;42.620;25.394;2022-08-19T06:03:13;96749.22;;;27.10;48.86
52591;BME280;38483;42.620;25.394;2022-08-19T06:05:42;96758.56;;;27.06;48.68
52591;BME280;38483;42.620;25.394;2022-08-19T06:08:18;96748.25;;;27.25;49.33
52591;BME280;38483;42.620;25.394;2022-08-19T06:11:13;96747.16;;;27.72;47.24
52591;BME280;38483;42.620;25.394;2022-08-19T06:13:44;96761.66;;;28.13;46.44
52591;BME280;38483;42.620;25.394;2022-08-19T06:16:13;96749.09;;;28.43;45.75
52591;BME280;38483;42.620;25.394;2022-08-19T06:18:50;96750.75;;;28.58;45.58
52591;BME280;38483;42.620;25.394;2022-08-19T06:21:23;96741.69;;;28.74;44.94
52591;BME280;38483;42.620;25.394;2022-08-19T06:23:53;96749.97;;;29.07;44.38
52591;BME280;38483;42.620;25.394;2022-08-19T06:26:22;96757.31;;;29.19;45.02
52591;BME280;38483;42.620;25.394;2022-08-19T06:28:52;96744.53;;;29.36;44.26
52591;BME280;38483;42.620;25.394;2022-08-19T06:31:22;96751.28;;;29.66;43.25
52591;BME280;38483;42.620;25.394;2022-08-19T06:33:52;96738.34;;;29.63;42.45
52591;BME280;38483;42.620;25.394;2022-08-19T06:36:25;96746.88;;;29.73;42.39
52591;BME280;38483;42.620;25.394;2022-08-19T06:38:58;96749.66;;;29.99;42.21
52591;BME280;38483;42.620;25.394;2022-08-19T06:41:29;96738.19;;;30.05;41.31
52591;BME280;38483;42.620;25.394;2022-08-19T06:44:00;96744.72;;;30.30;41.45
52591;BME280;38483;42.620;25.394;2022-08-19T06:46:30;96740.56;;;30.28;40.38
52591;BME280;38483;42.620;25.394;2022-08-19T06:49:01;96747.03;;;30.46;40.68
52591;BME280;38483;42.620;25.394;2022-08-19T06:51:28;96749.03;;;30.31;41.22
52591;BME280;38483;42.620;25.394;2022-08-19T06:53:57;96746.16;;;29.99;42.06
52591;BME280;38483;42.620;25.394;2022-08-19T06:56:31;96743.91;;;29.96;42.53
52591;BME280;38483;42.620;25.394;2022-08-19T06:59:11;96744.00;;;30.15;40.87
52591;BME280;38483;42.620;25.394;2022-08-19T07:01:50;96725.53;;;30.20;41.36
52591;BME280;38483;42.620;25.394;2022-08-19T07:04:21;96737.25;;;30.26;41.05
52591;BME280;38483;42.620;25.394;2022-08-19T07:06:56;96735.09;;;30.42;40.34
52591;BME280;38483;42.620;25.394;2022-08-19T07:09:29;96733.91;;;30.65;41.03
52591;BME280;38483;42.620;25.394;2022-08-19T07:11:58;96748.81;;;30.87;40.59
52591;BME280;38483;42.620;25.394;2022-08-19T07:14:33;96724.28;;;30.77;40.50
52591;BME280;38483;42.620;25.394;2022-08-19T07:17:07;96756.03;;;31.06;41.24
52591;BME280;38483;42.620;25.394;2022-08-19T07:19:38;96749.25;;;31.23;40.09
52591;BME280;38483;42.620;25.394;2022-08-19T07:22:08;96752.88;;;30.76;40.38
52591;BME280;38483;42.620;25.394;2022-08-19T07:24:39;96741.31;;;30.63;40.61
52591;BME280;38483;42.620;25.394;2022-08-19T07:27:18;96754.31;;;30.79;39.45
52591;BME280;38483;42.620;25.394;2022-08-19T07:29:53;96747.72;;;30.81;40.29
52591;BME280;38483;42.620;25.394;2022-08-19T07:32:24;96748.00;;;31.19;40.09
52591;BME280;38483;42.620;25.394;2022-08-19T07:34:54;96760.41;;;31.40;39.75
52591;BME280;38483;42.620;25.394;2022-08-19T07:37:24;96754.22;;;31.65;38.32
52591;BME280;38483;42.620;25.394;2022-08-19T07:40:02;96751.72;;;31.77;38.12
52591;BME280;38483;42.620;25.394;2022-08-19T07:42:33;96740.38;;;31.81;37.45
52591;BME280;38483;42.620;25.394;2022-08-19T07:45:05;96725.31;;;31.80;37.62
52591;BME280;38483;42.620;25.394;2022-08-19T07:47:35;96731.69;;;31.99;36.79
52591;BME280;38483;42.620;25.394;2022-08-19T07:50:17;96725.31;;;32.00;36.75
52591;BME280;38483;42.620;25.394;2022-08-19T07:52:49;96752.41;;;32.30;36.64
52591;BME280;38483;42.620;25.394;2022-08-19T07:55:21;96748.25;;;32.34;36.73
52591;BME280;38483;42.620;25.394;2022-08-19T07:58:15;96744.56;;;32.28;37.02
52591;BME280;38483;42.620;25.394;2022-08-19T08:00:47;96744.09;;;32.51;35.95
52591;BME280;38483;42.620;25.394;2022-08-19T08:03:20;96726.72;;;32.60;35.49
52591;BME280;38483;42.620;25.394;2022-08-19T08:06:08;96735.28;;;32.75;35.08
52591;BME280;38483;42.620;25.394;2022-08-19T08:08:57;96736.06;;;32.82;34.86
52591;BME280;38483;42.620;25.394;2022-08-19T08:11:45;96729.53;;;32.71;35.17
52591;BME280;38483;42.620;25.394;2022-08-19T08:14:29;96725.91;;;32.53;35.37
52591;BME280;38483;42.620;25.394;2022-08-19T08:17:05;96724.44;;;32.57;35.18
52591;BME280;38483;42.620;25.394;2022-08-19T08:19:37;96721.84;;;32.75;34.80
52591;BME280;38483;42.620;25.394;2022-08-19T08:22:05;96723.81;;;32.99;34.43
52591;BME280;38483;42.620;25.394;2022-08-19T08:24:37;96716.84;;;33.16;33.71
52591;BME280;38483;42.620;25.394;2022-08-19T08:27:14;96695.13;;;32.93;33.84
52591;BME280;38483;42.620;25.394;2022-08-19T08:29:43;96720.72;;;32.64;35.08
52591;BME280;38483;42.620;25.394;2022-08-19T08:32:11;96722.25;;;32.41;34.80
52591;BME280;38483;42.620;25.394;2022-08-19T08:34:42;96731.13;;;32.48;35.26
52591;BME280;38483;42.620;25.394;2022-08-19T08:37:13;96729.56;;;32.65;35.09
52591;BME280;38483;42.620;25.394;2022-08-19T08:39:43;96726.53;;;32.55;34.98
52591;BME280;38483;42.620;25.394;2022-08-19T08:42:22;96723.78;;;32.68;34.60
52591;BME280;38483;42.620;25.394;2022-08-19T08:44:59;96722.91;;;32.30;35.37
52591;BME280;38483;42.620;25.394;2022-08-19T08:47:36;96739.34;;;32.40;34.92
52591;BME280;38483;42.620;25.394;2022-08-19T08:50:13;96715.72;;;32.24;35.26
52591;BME280;38483;42.620;25.394;2022-08-19T08:52:48;96717.50;;;32.43;35.65
52591;BME280;38483;42.620;25.394;2022-08-19T08:55:23;96708.97;;;32.59;35.39
52591;BME280;38483;42.620;25.394;2022-08-19T08:57:58;96717.63;;;32.92;34.59
52591;BME280;38483;42.620;25.394;2022-08-19T09:00:40;96711.41;;;32.98;34.15
52591;BME280;38483;42.620;25.394;2022-08-19T09:03:22;96708.44;;;32.75;34.58
52591;BME280;38483;42.620;25.394;2022-08-19T09:06:04;96719.72;;;32.52;34.30
52591;BME280;38483;42.620;25.394;2022-08-19T09:08:59;96715.53;;;32.63;34.21
52591;BME280;38483;42.620;25.394;2022-08-19T09:14:38;96714.13;;;32.92;34.13
52591;BME280;38483;42.620;25.394;2022-08-19T09:17:30;96716.78;;;32.98;34.24
52591;BME280;38483;42.620;25.394;2022-08-19T09:22:42;96718.50;;;32.48;34.51
52591;BME280;38483;42.620;25.394;2022-08-19T09:25:17;96720.41;;;32.48;34.62
52591;BME280;38483;42.620;25.394;2022-08-19T09:27:54;96722.50;;;32.26;35.39
52591;BME280;38483;42.620;25.394;2022-08-19T09:30:37;96716.91;;;32.78;34.54
52591;BME280;38483;42.620;25.394;2022-08-19T09:33:08;96717.94;;;33.09;33.50
52591;BME280;38483;42.620;25.394;2022-08-19T09:35:35;96699.72;;;32.86;33.41
52591;BME280;38483;42.620;25.394;2022-08-19T09:38:20;96718.06;;;32.58;33.59
52591;BME280;38483;42.620;25.394;2022-08-19T09:40:49;96710.69;;;32.40;34.19
52591;BME280;38483;42.620;25.394;2022-08-19T09:43:18;96715.81;;;32.86;33.80
52591;BME280;38483;42.620;25.394;2022-08-19T09:46:01;96709.25;;;32.82;33.61
52591;BME280;38483;42.620;25.394;2022-08-19T09:48:32;96714.78;;;32.87;33.54
52591;BME280;38483;42.620;25.394;2022-08-19T09:51:24;96710.63;;;32.60;33.49
52591;BME280;38483;42.620;25.394;2022-08-19T09:54:00;96711.00;;;32.95;33.52
52591;BME280;38483;42.620;25.394;2022-08-19T09:56:31;96703.81;;;33.20;32.47
52591;BME280;38483;42.620;25.394;2022-08-19T09:59:02;96705.19;;;33.29;32.55
52591;BME280;38483;42.620;25.394;2022-08-19T10:01:33;96705.06;;;32.55;33.21
52591;BME280;38483;42.620;25.394;2022-08-19T10:04:00;96703.44;;;32.85;32.77
52591;BME280;38483;42.620;25.394;2022-08-19T10:06:47;96700.34;;;32.81;33.22
52591;BME280;38483;42.620;25.394;2022-08-19T10:09:20;96703.34;;;32.67;33.53
52591;BME280;38483;42.620;25.394;2022-08-19T10:12:00;96696.44;;;32.84;33.12
52591;BME280;38483;42.620;25.394;2022-08-19T10:14:29;96693.53;;;32.85;33.40
52591;BME280;38483;42.620;25.394;2022-08-19T10:16:57;96692.88;;;32.59;33.13
52591;BME280;38483;42.620;25.394;2022-08-19T10:19:44;96703.09;;;32.75;32.99
52591;BME280;38483;42.620;25.394;2022-08-19T10:22:23;96705.25;;;32.60;32.84
52591;BME280;38483;42.620;25.394;2022-08-19T10:24:51;96711.50;;;32.85;32.98
52591;BME280;38483;42.620;25.394;2022-08-19T10:27:23;96699.28;;;32.58;32.94
52591;BME280;38483;42.620;25.394;2022-08-19T10:29:56;96693.22;;;32.69;32.98
52591;BME280;38483;42.620;25.394;2022-08-19T10:32:25;96691.25;;;32.89;33.39
52591;BME280;38483;42.620;25.394;2022-08-19T10:35:01;96682.31;;;32.95;32.66
52591;BME280;38483;42.620;25.394;2022-08-19T10:37:31;96690.41;;;33.20;32.64
52591;BME280;38483;42.620;25.394;2022-08-19T10:40:04;96680.88;;;32.93;32.29
52591;BME280;38483;42.620;25.394;2022-08-19T10:42:34;96683.88;;;32.78;32.23
52591;BME280;38483;42.620;25.394;2022-08-19T10:45:04;96688.13;;;32.61;33.22
52591;BME280;38483;42.620;25.394;2022-08-19T10:47:33;96681.19;;;32.47;33.04
52591;BME280;38483;42.620;25.394;2022-08-19T10:50:34;96671.34;;;32.72;32.81
52591;BME280;38483;42.620;25.394;2022-08-19T10:54:32;96683.31;;;33.25;31.79
52591;BME280;38483;42.620;25.394;2022-08-19T10:57:21;96682.13;;;33.21;31.86
52591;BME280;38483;42.620;25.394;2022-08-19T11:00:03;96656.78;;;32.86;32.52
52591;BME280;38483;42.620;25.394;2022-08-19T11:02:31;96663.94;;;33.23;32.69
52591;BME280;38483;42.620;25.394;2022-08-19T11:04:59;96673.25;;;33.63;32.10
52591;BME280;38483;42.620;25.394;2022-08-19T11:07:41;96678.84;;;33.80;31.38
52591;BME280;38483;42.620;25.394;2022-08-19T11:10:12;96661.63;;;33.02;33.03
52591;BME280;38483;42.620;25.394;2022-08-19T11:12:48;96649.94;;;32.90;32.86
52591;BME280;38483;42.620;25.394;2022-08-19T11:15:23;96668.81;;;33.08;33.24
52591;BME280;38483;42.620;25.394;2022-08-19T11:17:51;96666.22;;;32.95;32.97
52591;BME280;38483;42.620;25.394;2022-08-19T11:20:21;96647.53;;;32.82;33.36
52591;BME280;38483;42.620;25.394;2022-08-19T11:22:52;96667.25;;;32.94;32.14
52591;BME280;38483;42.620;25.394;2022-08-19T11:25:20;96658.06;;;33.08;32.64
52591;BME280;38483;42.620;25.394;2022-08-19T11:27:47;96656.50;;;33.43;32.46
52591;BME280;38483;42.620;25.394;2022-08-19T11:30:20;96653.41;;;33.64;32.27
52591;BME280;38483;42.620;25.394;2022-08-19T11:32:53;96631.03;;;33.10;33.31
52591;BME280;38483;42.620;25.394;2022-08-19T11:35:21;96646.56;;;33.26;33.09
52591;BME280;38483;42.620;25.394;2022-08-19T11:37:50;96608.72;;;32.84;33.49
52591;BME280;38483;42.620;25.394;2022-08-19T11:40:19;96649.03;;;33.45;32.83
52591;BME280;38483;42.620;25.394;2022-08-19T11:42:46;96638.44;;;33.57;31.65
52591;BME280;38483;42.620;25.394;2022-08-19T11:45:26;96649.38;;;34.10;31.82
52591;BME280;38483;42.620;25.394;2022-08-19T11:47:54;96652.19;;;33.97;31.84
52591;BME280;38483;42.620;25.394;2022-08-19T11:50:25;96631.47;;;33.49;31.62
52591;BME280;38483;42.620;25.394;2022-08-19T11:52:56;96629.25;;;33.64;32.06
52591;BME280;38483;42.620;25.394;2022-08-19T11:55:25;96651.41;;;33.35;33.70
52591;BME280;38483;42.620;25.394;2022-08-19T11:57:52;96641.34;;;33.06;33.96
52591;BME280;38483;42.620;25.394;2022-08-19T12:00:19;96634.44;;;32.92;34.06
52591;BME280;38483;42.620;25.394;2022-08-19T12:02:47;96627.81;;;33.19;33.61
52591;BME280;38483;42.620;25.394;2022-08-19T12:05:14;96617.00;;;33.08;32.87
52591;BME280;38483;42.620;25.394;2022-08-19T12:07:41;96620.94;;;33.05;32.96
52591;BME280;38483;42.620;25.394;2022-08-19T12:10:10;96630.06;;;33.22;32.10
52591;BME280;38483;42.620;25.394;2022-08-19T12:12:39;96629.03;;;33.41;32.01
52591;BME280;38483;42.620;25.394;2022-08-19T12:15:11;96614.94;;;33.46;31.64
52591;BME280;38483;42.620;25.394;2022-08-19T12:17:38;96615.25;;;33.38;31.51
52591;BME280;38483;42.620;25.394;2022-08-19T12:20:08;96624.22;;;33.86;31.40
52591;BME280;38483;42.620;25.394;2022-08-19T12:22:37;96622.16;;;34.06;32.10
52591;BME280;38483;42.620;25.394;2022-08-19T12:25:10;96614.19;;;33.39;32.97
52591;BME280;38483;42.620;25.394;2022-08-19T12:27:38;96629.00;;;33.05;33.32
52591;BME280;38483;42.620;25.394;2022-08-19T12:30:12;96617.22;;;33.24;33.35
52591;BME280;38483;42.620;25.394;2022-08-19T12:32:43;96615.50;;;33.54;32.86
52591;BME280;38483;42.620;25.394;2022-08-19T12:35:14;96628.94;;;33.54;32.63
52591;BME280;38483;42.620;25.394;2022-08-19T12:37:41;96616.13;;;33.14;32.25
52591;BME280;38483;42.620;25.394;2022-08-19T12:40:24;96607.97;;;33.20;32.40
52591;BME280;38483;42.620;25.394;2022-08-19T12:42:54;96610.22;;;33.23;32.63
52591;BME280;38483;42.620;25.394;2022-08-19T12:45:22;96601.34;;;33.41;31.64
52591;BME280;38483;42.620;25.394;2022-08-19T12:47:49;96613.13;;;33.64;31.50
52591;BME280;38483;42.620;25.394;2022-08-19T12:50:21;96608.00;;;33.93;31.07
52591;BME280;38483;42.620;25.394;2022-08-19T12:52:50;96609.16;;;33.85;31.93
52591;BME280;38483;42.620;25.394;2022-08-19T12:55:18;96612.00;;;33.54;32.49
52591;BME280;38483;42.620;25.394;2022-08-19T12:57:46;96606.97;;;33.39;32.85
52591;BME280;38483;42.620;25.394;2022-08-19T13:00:17;96608.69;;;33.34;32.58
52591;BME280;38483;42.620;25.394;2022-08-19T13:02:50;96605.47;;;33.43;32.50
52591;BME280;38483;42.620;25.394;2022-08-19T13:05:20;96615.19;;;33.44;32.66
52591;BME280;38483;42.620;25.394;2022-08-19T13:07:50;96603.72;;;33.13;32.98
52591;BME280;38483;42.620;25.394;2022-08-19T13:10:20;96607.19;;;33.38;32.86
52591;BME280;38483;42.620;25.394;2022-08-19T13:12:49;96606.28;;;33.44;32.30
52591;BME280;38483;42.620;25.394;2022-08-19T13:15:18;96594.84;;;33.73;32.05
52591;BME280;38483;42.620;25.394;2022-08-19T13:17:52;96603.75;;;34.03;31.56
52591;BME280;38483;42.620;25.394;2022-08-19T13:20:20;96593.97;;;34.09;31.50
52591;BME280;38483;42.620;25.394;2022-08-19T13:22:48;96585.19;;;34.02;31.39
52591;BME280;38483;42.620;25.394;2022-08-19T13:25:23;96615.28;;;33.56;32.00